TimeCDT,TemperatureF,Dew PointF,Humidity,Sea Level PressureIn,VisibilityMPH,Wind Direction,Wind SpeedMPH,Gust SpeedMPH,PrecipitationIn,Events,Conditions,WindDirDegrees,DateUTC
12:58 AM,76.3,68.4,76,29.92,10.0,NE,8.1,-,N/A,,Clear,50,2013-07-28 05:58:00
1:48 AM,77.0,68.0,74,29.94,10.0,NE,8.1,-,N/A,,Mostly Cloudy,40,2013-07-28 06:48:00
1:58 AM,76.5,68.2,75,29.91,10.0,NE,9.2,-,N/A,,Mostly Cloudy,40,2013-07-28 06:58:00
2:13 AM,77.0,68.0,74,29.93,10.0,NE,8.1,-,N/A,,Scattered Clouds,40,2013-07-28 07:13:00
2:58 AM,75.6,68.4,78,29.91,10.0,NE,5.8,-,N/A,,Partly Cloudy,40,2013-07-28 07:58:00
3:58 AM,75.2,68.4,79,29.90,10.0,NE,6.9,-,N/A,,Partly Cloudy,50,2013-07-28 08:58:00
4:28 AM,75.2,68.0,78,29.92,10.0,NE,6.9,-,N/A,,Overcast,50,2013-07-28 09:28:00
4:43 AM,77.0,68.0,74,29.92,10.0,NE,6.9,-,N/A,,Overcast,50,2013-07-28 09:43:00
4:58 AM,76.3,68.7,77,29.90,10.0,ENE,6.9,-,N/A,,Overcast,60,2013-07-28 09:58:00
5:28 AM,77.0,69.8,78,29.92,10.0,ENE,6.9,-,N/A,,Overcast,60,2013-07-28 10:28:00
5:38 AM,77.0,69.8,78,29.92,10.0,ENE,5.8,-,N/A,,Overcast,60,2013-07-28 10:38:00
5:58 AM,76.1,69.1,79,29.90,10.0,ENE,6.9,-,N/A,,Overcast,70,2013-07-28 10:58:00
6:48 AM,75.2,69.8,83,29.94,10.0,ENE,8.1,-,N/A,,Overcast,60,2013-07-28 11:48:00
6:58 AM,75.6,69.4,81,29.92,10.0,ENE,5.8,-,N/A,,Overcast,70,2013-07-28 11:58:00
7:23 AM,75.2,69.8,83,29.94,10.0,ENE,6.9,-,N/A,,Overcast,60,2013-07-28 12:23:00
7:33 AM,75.2,69.8,83,29.94,10.0,ENE,5.8,-,N/A,,Overcast,70,2013-07-28 12:33:00
7:58 AM,76.1,70.2,82,29.92,10.0,ENE,5.8,-,N/A,,Overcast,70,2013-07-28 12:58:00
8:28 AM,77.0,69.8,78,29.95,10.0,East,4.6,-,N/A,,Overcast,90,2013-07-28 13:28:00
8:53 AM,77.0,71.6,83,29.96,10.0,ESE,4.6,-,N/A,,Overcast,110,2013-07-28 13:53:00
8:58 AM,77.9,71.2,80,29.94,10.0,East,4.6,-,N/A,,Overcast,100,2013-07-28 13:58:00
9:58 AM,80.2,73.4,80,29.94,10.0,SSE,5.8,-,N/A,,Overcast,160,2013-07-28 14:58:00
10:13 AM,80.6,73.4,79,29.96,10.0,Variable,5.8,-,N/A,,Overcast,0,2013-07-28 15:13:00
10:48 AM,82.4,73.4,74,29.96,10.0,South,3.5,-,N/A,,Mostly Cloudy,170,2013-07-28 15:48:00
10:58 AM,83.8,73.8,72,29.94,10.0,Variable,4.6,-,N/A,,Mostly Cloudy,0,2013-07-28 15:58:00
11:13 AM,84.2,73.4,70,29.96,10.0,SE,5.8,-,N/A,,Overcast,140,2013-07-28 16:13:00
11:23 AM,84.2,73.4,70,29.96,10.0,ESE,5.8,-,N/A,,Overcast,120,2013-07-28 16:23:00
11:28 AM,84.2,73.4,70,29.96,10.0,SSE,6.9,-,N/A,,Overcast,160,2013-07-28 16:28:00
11:38 AM,86.0,73.4,66,29.96,10.0,SSE,6.9,-,N/A,,Overcast,150,2013-07-28 16:38:00
11:58 AM,86.4,73.0,64,29.94,10.0,East,6.9,-,N/A,,Overcast,100,2013-07-28 16:58:00
12:58 PM,89.8,71.8,55,29.91,10.0,SSW,9.2,-,N/A,,Mostly Cloudy,200,2013-07-28 17:58:00
1:58 PM,91.6,71.2,51,29.91,10.0,ESE,9.2,-,N/A,,Mostly Cloudy,120,2013-07-28 18:58:00
2:58 PM,94.3,70.5,46,29.88,10.0,SE,10.4,-,N/A,,Scattered Clouds,140,2013-07-28 19:58:00
3:58 PM,94.5,69.1,43,29.86,10.0,South,9.2,-,N/A,,Mostly Cloudy,170,2013-07-28 20:58:00
4:58 PM,95.7,68.9,41,29.84,10.0,SE,10.4,-,N/A,,Partly Cloudy,140,2013-07-28 21:58:00
5:58 PM,95.7,66.9,39,29.84,10.0,SSE,15.0,-,N/A,,Partly Cloudy,150,2013-07-28 22:58:00
6:58 PM,94.5,64.6,37,29.83,10.0,SE,10.4,-,N/A,,Partly Cloudy,130,2013-07-28 23:58:00
7:58 PM,90.5,69.8,50,29.85,10.0,SE,15.0,-,N/A,,Clear,140,2013-07-29 00:58:00
8:58 PM,86.5,70.2,58,29.87,10.0,SSE,15.0,-,N/A,,Clear,160,2013-07-29 01:58:00
9:58 PM,85.1,72.9,67,29.90,10.0,SSE,15.0,-,N/A,,Clear,150,2013-07-29 02:58:00
10:58 PM,82.8,73.8,74,29.91,10.0,SSE,12.7,-,N/A,,Clear,150,2013-07-29 03:58:00
11:58 PM,80.4,73.6,80,29.93,10.0,SSE,12.7,-,N/A,,Clear,160,2013-07-29 04:58:00